createdAt,value
2022-10-18T00:00:45.088Z,101461.81
2022-10-18T00:06:59.609Z,101469.13
2022-10-18T00:09:27.485Z,101475.88
2022-10-18T00:11:55.131Z,101468.19
2022-10-18T00:14:22.189Z,101476.34
2022-10-18T00:16:48.506Z,101471.53
2022-10-18T00:19:14.940Z,101473.94
2022-10-18T00:21:41.469Z,101468.69
2022-10-18T00:24:07.953Z,101479.75
2022-10-18T00:26:34.345Z,101478.03
2022-10-18T00:29:05.178Z,101475.31
2022-10-18T00:31:36.799Z,101472.63
2022-10-18T00:34:06.168Z,101473.63
2022-10-18T00:36:34.335Z,101471.91
2022-10-18T00:39:01.875Z,101471.38
2022-10-18T00:41:31.301Z,101471.38
2022-10-18T00:44:05.061Z,101478.66
2022-10-18T00:46:34.638Z,101471.53
2022-10-18T00:49:26.607Z,101470.69
2022-10-18T00:52:04.269Z,101468.59
2022-10-18T00:54:34.404Z,101466.72
2022-10-18T00:57:01.193Z,101465.63
2022-10-18T00:59:28.347Z,101467.16
2022-10-18T01:01:54.788Z,101460.06
2022-10-18T01:04:22.428Z,101467.47
2022-10-18T01:07:10.367Z,101454.94
2022-10-18T01:09:45.539Z,101454.78
2022-10-18T01:12:53.164Z,101457.34
2022-10-18T01:15:34.392Z,101452.41
2022-10-18T01:18:24.589Z,101444.28
2022-10-18T01:21:07.898Z,101439.84
2022-10-18T01:23:52.971Z,101440.72
2022-10-18T01:26:57.029Z,101448.84
2022-10-18T01:29:54.882Z,101443.41
2022-10-18T01:32:24.772Z,101442.94
2022-10-18T01:34:55.727Z,101438.00
2022-10-18T01:37:22.850Z,101439.00
2022-10-18T01:39:54.846Z,101438.13
2022-10-18T01:42:21.460Z,101425.91
2022-10-18T01:44:50.543Z,101418.09
2022-10-18T01:47:17.894Z,101416.19
2022-10-18T01:49:44.215Z,101414.47
2022-10-18T01:52:15.441Z,101415.06
2022-10-18T01:54:48.176Z,101417.38
2022-10-18T01:57:25.589Z,101426.75
2022-10-18T02:00:16.224Z,101427.38
2022-10-18T02:03:04.132Z,101430.09
2022-10-18T02:05:42.412Z,101421.88
2022-10-18T02:08:32.917Z,101429.63
2022-10-18T02:11:08.545Z,101410.25
2022-10-18T02:14:05.851Z,101407.72
2022-10-18T02:16:39.059Z,101409.56
2022-10-18T02:19:14.396Z,101414.97
2022-10-18T02:21:42.088Z,101416.84
2022-10-18T02:24:11.531Z,101422.78
2022-10-18T02:26:37.869Z,101413.97
2022-10-18T02:29:04.513Z,101426.34
2022-10-18T02:31:36.400Z,101437.75
2022-10-18T02:34:11.321Z,101428.53
2022-10-18T02:36:47.449Z,101423.25
2022-10-18T02:39:20.621Z,101430.53
2022-10-18T02:41:47.285Z,101426.13
2022-10-18T02:44:13.592Z,101416.44
2022-10-18T02:46:40.470Z,101419.13
2022-10-18T02:49:07.011Z,101430.38
2022-10-18T02:51:33.423Z,101425.38
2022-10-18T02:53:59.780Z,101427.50
2022-10-18T02:56:26.118Z,101445.47
2022-10-18T02:58:52.421Z,101451.13
2022-10-18T03:01:18.806Z,101476.88
2022-10-18T03:03:45.177Z,101486.69
2022-10-18T03:06:11.617Z,101491.97
2022-10-18T03:08:38.145Z,101503.97
2022-10-18T03:11:04.602Z,101499.84
2022-10-18T03:13:30.910Z,101495.13
2022-10-18T03:15:57.188Z,101477.47
2022-10-18T03:18:23.562Z,101475.63
2022-10-18T03:20:49.871Z,101474.06
2022-10-18T03:23:16.233Z,101474.50
2022-10-18T03:25:45.613Z,101485.19
2022-10-18T03:28:12.842Z,101481.78
2022-10-18T03:30:39.118Z,101461.13
2022-10-18T03:33:06.210Z,101455.78
2022-10-18T03:35:32.554Z,101452.88
2022-10-18T03:37:58.932Z,101448.28
2022-10-18T03:40:25.354Z,101437.53
2022-10-18T03:42:51.675Z,101434.22
2022-10-18T03:45:18.019Z,101433.28
2022-10-18T03:47:44.286Z,101425.53
2022-10-18T03:50:10.650Z,101422.03
2022-10-18T03:52:37.301Z,101420.94
2022-10-18T03:55:03.958Z,101426.81
2022-10-18T03:57:30.572Z,101429.84
2022-10-18T03:59:56.919Z,101432.56
2022-10-18T04:02:23.223Z,101471.53
2022-10-18T04:04:49.579Z,101550.81
2022-10-18T04:07:16.304Z,101544.13
2022-10-18T04:09:42.590Z,101529.31
2022-10-18T04:12:08.940Z,101538.75
2022-10-18T04:14:35.280Z,101521.94
2022-10-18T04:17:01.591Z,101501.13
2022-10-18T04:19:27.854Z,101503.06
2022-10-18T04:21:54.157Z,101500.78
2022-10-18T04:24:20.512Z,101500.16
2022-10-18T04:26:46.860Z,101497.72
2022-10-18T04:29:13.434Z,101495.47
2022-10-18T04:31:39.811Z,101487.63
2022-10-18T04:34:06.100Z,101493.50
2022-10-18T04:36:32.471Z,101490.09
2022-10-18T04:38:58.751Z,101492.50
2022-10-18T04:41:25.130Z,101489.69
2022-10-18T04:43:51.470Z,101488.81
2022-10-18T04:46:18.119Z,101487.09
2022-10-18T04:48:44.445Z,101483.78
2022-10-18T04:51:10.842Z,101484.91
2022-10-18T04:53:37.164Z,101482.84
2022-10-18T04:56:03.564Z,101481.56
2022-10-18T04:58:29.901Z,101477.72
2022-10-18T05:00:56.191Z,101476.84
2022-10-18T05:03:22.564Z,101480.56
2022-10-18T05:06:04.195Z,101476.03
2022-10-18T05:08:32.285Z,101478.59
2022-10-18T05:10:58.907Z,101473.72
2022-10-18T05:13:25.532Z,101475.44
2022-10-18T05:15:51.966Z,101475.28
2022-10-18T05:18:18.311Z,101474.72
2022-10-18T05:20:44.627Z,101477.00
2022-10-18T05:23:11.011Z,101473.88
2022-10-18T05:25:41.375Z,101466.91
2022-10-18T05:28:15.696Z,101474.31
2022-10-18T05:30:53.808Z,101468.34
2022-10-18T05:33:20.356Z,101471.34
2022-10-18T05:35:46.692Z,101461.22
2022-10-18T05:38:13.244Z,101464.34
2022-10-18T05:40:39.609Z,101458.38
2022-10-18T05:43:05.885Z,101463.78
2022-10-18T05:45:32.201Z,101461.38
2022-10-18T05:47:58.492Z,101471.03
2022-10-18T05:50:24.784Z,101494.13
2022-10-18T05:52:51.067Z,101503.94
2022-10-18T05:55:17.417Z,101514.63
2022-10-18T05:57:43.738Z,101502.25
2022-10-18T06:00:10.819Z,101496.81
2022-10-18T06:02:37.218Z,101493.97
2022-10-18T06:05:03.820Z,101491.25
2022-10-18T06:07:30.471Z,101490.84
2022-10-18T06:09:56.979Z,101489.97
2022-10-18T06:12:23.256Z,101491.84
2022-10-18T06:14:49.568Z,101498.09
2022-10-18T06:17:15.924Z,101494.00
2022-10-18T06:19:44.250Z,101500.56
2022-10-18T06:22:11.541Z,101495.41
2022-10-18T06:24:37.937Z,101500.84
2022-10-18T06:27:08.754Z,101505.13
2022-10-18T06:29:36.410Z,101531.88
2022-10-18T06:32:03.940Z,101528.88
2022-10-18T06:34:30.376Z,101537.28
2022-10-18T06:36:58.863Z,101548.41
2022-10-18T06:39:25.921Z,101554.09
2022-10-18T06:41:53.083Z,101546.00
2022-10-18T06:44:20.313Z,101531.31
2022-10-18T06:46:47.636Z,101525.06
2022-10-18T06:49:18.265Z,101524.78
2022-10-18T06:51:46.067Z,101535.84
2022-10-18T06:54:18.178Z,101521.63
2022-10-18T06:56:44.926Z,101507.41
2022-10-18T06:59:11.576Z,101512.66
2022-10-18T07:01:38.220Z,101516.91
2022-10-18T07:04:08.683Z,101513.25
2022-10-18T07:06:34.977Z,101518.50
2022-10-18T07:09:02.948Z,101541.81
2022-10-18T07:11:29.296Z,101550.38
2022-10-18T07:14:02.831Z,101552.94
2022-10-18T07:16:29.997Z,101554.34
2022-10-18T07:18:56.563Z,101556.22
2022-10-18T07:21:25.672Z,101547.66
2022-10-18T07:23:52.610Z,101560.03
2022-10-18T07:26:29.791Z,101560.03
2022-10-18T07:29:00.322Z,101566.31
2022-10-18T07:31:27.243Z,101561.63
2022-10-18T07:33:54.115Z,101572.47
2022-10-18T07:36:24.390Z,101566.91
2022-10-18T07:38:52.032Z,101568.59
2022-10-18T07:41:18.615Z,101570.47
2022-10-18T07:43:47.523Z,101571.97
2022-10-18T07:46:15.243Z,101565.59
2022-10-18T07:48:41.720Z,101571.44
2022-10-18T07:51:09.072Z,101570.81
2022-10-18T07:53:36.124Z,101577.66
2022-10-18T07:56:08.604Z,101576.09
2022-10-18T07:58:36.139Z,101577.78
2022-10-18T08:01:04.551Z,101576.09
2022-10-18T08:03:31.076Z,101576.78
2022-10-18T08:05:57.572Z,101574.06
2022-10-18T08:08:25.224Z,101583.44
2022-10-18T08:10:51.797Z,101568.19
2022-10-18T08:13:18.970Z,101578.59
2022-10-18T08:15:45.300Z,101572.44
2022-10-18T08:18:11.684Z,101578.25
2022-10-18T08:20:43.600Z,101576.22
2022-10-18T08:23:10.292Z,101584.44
2022-10-18T08:28:08.022Z,101587.16
2022-10-18T08:30:35.783Z,101593.97
2022-10-18T08:33:03.067Z,101591.78
2022-10-18T08:35:29.361Z,101596.16
2022-10-18T08:37:55.677Z,101600.13
2022-10-18T08:40:22.079Z,101611.94
2022-10-18T08:42:58.755Z,101603.06
2022-10-18T08:45:37.764Z,101605.47
2022-10-18T08:48:19.326Z,101599.06
2022-10-18T08:50:46.676Z,101602.28
2022-10-18T08:53:45.360Z,101606.44
2022-10-18T08:56:16.173Z,101613.47
2022-10-18T08:58:44.342Z,101614.34
2022-10-18T09:01:28.188Z,101609.38
2022-10-18T09:04:18.955Z,101619.44
2022-10-18T09:07:03.945Z,101629.31
2022-10-18T09:09:54.371Z,101621.88
2022-10-18T09:12:51.250Z,101620.53
2022-10-18T09:15:26.696Z,101628.44
2022-10-18T09:18:26.734Z,101629.16
2022-10-18T09:20:57.630Z,101630.38
2022-10-18T09:23:40.864Z,101629.00
2022-10-18T09:26:16.740Z,101628.84
2022-10-18T09:29:20.686Z,101630.84
2022-10-18T09:32:20.033Z,101627.63
2022-10-18T09:35:11.710Z,101628.16
2022-10-18T09:37:39.258Z,101631.78
2022-10-18T09:40:22.995Z,101631.47
2022-10-18T09:42:59.089Z,101633.16
2022-10-18T09:45:30.730Z,101633.16
2022-10-18T09:48:08.395Z,101641.63
2022-10-18T09:51:12.073Z,101640.00
2022-10-18T09:54:15.380Z,101629.16
2022-10-18T09:56:51.351Z,101619.16
2022-10-18T09:59:32.331Z,101625.50
2022-10-18T10:01:58.633Z,101618.13
2022-10-18T10:04:24.950Z,101629.13
2022-10-18T10:06:56.499Z,101622.78
2022-10-18T10:09:29.423Z,101621.81
2022-10-18T10:11:57.440Z,101627.59
2022-10-18T10:14:27.085Z,101628.44
2022-10-18T10:17:03.806Z,101619.16
2022-10-18T10:19:39.703Z,101625.84
2022-10-18T10:22:12.156Z,101629.81
2022-10-18T10:24:53.458Z,101632.56
2022-10-18T10:27:24.995Z,101628.31
2022-10-18T10:29:56.597Z,101636.31
2022-10-18T10:34:58.544Z,101652.38
2022-10-18T10:37:24.970Z,101655.00
2022-10-18T10:40:19.325Z,101655.22
2022-10-18T10:43:08.898Z,101653.59
2022-10-18T10:46:02.692Z,101663.84
2022-10-18T10:48:33.728Z,101663.50
2022-10-18T10:51:02.864Z,101668.47
2022-10-18T10:53:40.690Z,101665.94
2022-10-18T10:56:16.124Z,101660.41
2022-10-18T10:58:42.781Z,101668.75
2022-10-18T11:01:21.156Z,101668.75
2022-10-18T11:03:49.645Z,101669.53
2022-10-18T11:06:49.962Z,101677.03
2022-10-18T11:09:38.198Z,101671.28
2022-10-18T11:12:21.023Z,101672.53
2022-10-18T11:14:57.249Z,101669.75
2022-10-18T11:17:32.378Z,101666.03
2022-10-18T11:20:09.520Z,101662.84
2022-10-18T11:22:44.651Z,101662.50
2022-10-18T11:25:14.607Z,101657.25
2022-10-18T11:27:52.979Z,101661.38
2022-10-18T11:30:58.731Z,101662.38
2022-10-18T11:34:07.764Z,101654.63
2022-10-18T11:36:49.312Z,101643.47
2022-10-18T11:39:49.806Z,101644.16
2022-10-18T11:42:36.728Z,101649.28
2022-10-18T11:48:33.586Z,101646.78
2022-10-18T11:51:55.976Z,101647.56
2022-10-18T11:54:51.966Z,101644.97
2022-10-18T11:57:24.285Z,101648.22
2022-10-18T12:00:08.122Z,101646.47
2022-10-18T12:03:12.076Z,101655.38
2022-10-18T12:05:40.923Z,101649.41
2022-10-18T12:08:13.435Z,101649.25
2022-10-18T12:10:53.108Z,101649.75
2022-10-18T12:13:44.173Z,101649.41
2022-10-18T12:16:11.402Z,101641.91
2022-10-18T12:18:48.409Z,101632.34
2022-10-18T12:21:17.924Z,101645.81
2022-10-18T12:23:52.939Z,101639.22
2022-10-18T12:26:19.476Z,101636.47
2022-10-18T12:28:52.666Z,101636.47
2022-10-18T12:31:33.901Z,101633.41
2022-10-18T12:34:21.305Z,101622.16
2022-10-18T12:37:26.272Z,101623.16
2022-10-18T12:40:18.552Z,101619.78
2022-10-18T12:42:50.392Z,101619.78
2022-10-18T12:45:32.173Z,101618.72
2022-10-18T12:48:05.855Z,101624.19
2022-10-18T12:50:38.385Z,101620.47
2022-10-18T12:53:04.678Z,101619.13
2022-10-18T12:55:36.658Z,101619.59
2022-10-18T12:58:20.926Z,101620.78
2022-10-18T13:00:47.678Z,101609.50
2022-10-18T13:03:14.224Z,101621.28
2022-10-18T13:05:54.516Z,101616.66
2022-10-18T13:08:28.094Z,101604.66
2022-10-18T13:11:09.970Z,101618.53
2022-10-18T13:13:54.696Z,101612.91
2022-10-18T13:16:33.440Z,101608.81
2022-10-18T13:19:19.490Z,101612.19
2022-10-18T13:21:54.552Z,101612.88
2022-10-18T13:24:28.959Z,101610.00
2022-10-18T13:27:34.534Z,101608.81
2022-10-18T13:30:14.489Z,101614.63
2022-10-18T13:33:13.523Z,101616.34
2022-10-18T13:35:48.499Z,101614.16
2022-10-18T13:38:41.136Z,101616.69
2022-10-18T13:41:09.182Z,101615.00
2022-10-18T13:44:11.451Z,101613.13
2022-10-18T13:46:37.710Z,101618.59
2022-10-18T13:49:35.064Z,101620.28
2022-10-18T13:52:45.917Z,101617.06
2022-10-18T13:55:33.748Z,101620.16
2022-10-18T13:58:28.883Z,101620.44
2022-10-18T14:01:01.380Z,101622.47
2022-10-18T14:03:57.112Z,101611.59
2022-10-18T14:06:28.753Z,101628.50
2022-10-18T14:12:31.817Z,101622.00
2022-10-18T14:15:15.302Z,101623.19
2022-10-18T14:17:48.441Z,101623.84
2022-10-18T14:20:29.510Z,101624.38
2022-10-18T14:23:12.825Z,101627.59
2022-10-18T14:25:39.311Z,101628.81
2022-10-18T14:28:31.644Z,101625.75
2022-10-18T14:31:17.233Z,101627.47
2022-10-18T14:33:57.637Z,101634.63
2022-10-18T14:36:27.787Z,101627.97
2022-10-18T14:39:18.176Z,101636.28
2022-10-18T14:41:49.544Z,101636.44
2022-10-18T14:44:15.857Z,101641.03
2022-10-18T14:46:50.660Z,101656.69
2022-10-18T14:49:19.583Z,101648.19
2022-10-18T14:51:50.229Z,101653.78
2022-10-18T14:54:20.941Z,101648.53
2022-10-18T14:56:47.599Z,101639.50
2022-10-18T14:59:29.740Z,101649.19
2022-10-18T15:02:12.004Z,101641.50
2022-10-18T15:04:38.436Z,101649.34
2022-10-18T15:07:07.503Z,101647.63
2022-10-18T15:09:36.786Z,101644.22
2022-10-18T15:12:06.324Z,101636.38
2022-10-18T15:14:33.703Z,101648.28
2022-10-18T15:17:07.947Z,101644.53
2022-10-18T15:19:36.599Z,101649.28
2022-10-18T15:25:23.719Z,101640.44
2022-10-18T15:27:56.684Z,101641.25
2022-10-18T15:30:27.804Z,101648.41
2022-10-18T15:33:00.093Z,101657.38
2022-10-18T15:35:30.628Z,101655.66
2022-10-18T15:38:00.019Z,101642.06
2022-10-18T15:40:37.317Z,101649.00
2022-10-18T15:43:23.305Z,101658.34
2022-10-18T15:46:28.616Z,101658.34
2022-10-18T15:49:30.956Z,101655.06
2022-10-18T15:52:10.555Z,101645.72
2022-10-18T15:54:37.059Z,101652.47
2022-10-18T15:57:09.035Z,101654.50
2022-10-18T15:59:36.529Z,101647.72
2022-10-18T16:02:02.914Z,101648.88
2022-10-18T16:04:32.837Z,101642.91
2022-10-18T16:07:00.268Z,101642.06
2022-10-18T16:09:28.995Z,101641.56
2022-10-18T16:11:57.199Z,101645.25
2022-10-18T16:14:25.502Z,101640.47
2022-10-18T16:16:54.896Z,101646.00
2022-10-18T16:19:22.613Z,101642.38
2022-10-18T16:21:49.442Z,101648.69
2022-10-18T16:24:15.933Z,101638.25
2022-10-18T16:26:42.565Z,101647.75
2022-10-18T16:29:18.561Z,101648.53
2022-10-18T16:31:46.561Z,101651.19
2022-10-18T16:34:14.670Z,101651.63
2022-10-18T16:36:41.425Z,101662.22
2022-10-18T16:39:15.032Z,101661.19
2022-10-18T16:41:41.502Z,101659.78
2022-10-18T16:44:07.830Z,101652.25
2022-10-18T16:46:34.629Z,101659.78
2022-10-18T16:49:01.982Z,101665.28
2022-10-18T16:51:28.572Z,101667.44
2022-10-18T16:53:55.138Z,101669.28
2022-10-18T16:56:25.716Z,101677.91
2022-10-18T16:58:52.543Z,101675.13
2022-10-18T17:01:21.192Z,101688.13
2022-10-18T17:03:47.711Z,101682.31
2022-10-18T17:06:22.148Z,101684.59
2022-10-18T17:08:49.034Z,101700.34
2022-10-18T17:11:20.790Z,101702.50
2022-10-18T17:13:47.081Z,101693.50
2022-10-18T17:16:24.353Z,101698.06
2022-10-18T17:18:51.263Z,101695.66
2022-10-18T17:21:17.824Z,101701.69
2022-10-18T17:23:44.160Z,101698.72
2022-10-18T17:26:29.027Z,101703.75
2022-10-18T17:29:04.331Z,101697.47
2022-10-18T17:31:31.728Z,101701.59
2022-10-18T17:33:59.718Z,101699.47
2022-10-18T17:36:26.139Z,101710.06
2022-10-18T17:38:55.841Z,101709.50
2022-10-18T17:41:22.702Z,101711.09
2022-10-18T17:43:49.124Z,101711.41
2022-10-18T17:46:16.399Z,101717.97
2022-10-18T17:48:42.760Z,101709.00
2022-10-18T17:51:11.397Z,101712.97
2022-10-18T17:53:37.984Z,101720.13
2022-10-18T17:56:05.427Z,101717.56
2022-10-18T17:58:32.369Z,101713.56
2022-10-18T18:01:13.731Z,101716.16
2022-10-18T18:03:40.964Z,101718.00
2022-10-18T18:06:13.516Z,101718.72
2022-10-18T18:08:39.887Z,101716.03
2022-10-18T18:11:06.209Z,101721.03
2022-10-18T18:13:32.547Z,101720.59
2022-10-18T18:16:29.187Z,101723.16
2022-10-18T18:18:57.441Z,101717.63
2022-10-18T18:21:25.046Z,101722.16
2022-10-18T18:23:51.404Z,101728.16
2022-10-18T18:26:18.690Z,101724.88
2022-10-18T18:28:45.719Z,101725.84
2022-10-18T18:31:15.669Z,101722.56
2022-10-18T18:33:43.264Z,101726.84
2022-10-18T18:36:10.195Z,101721.69
2022-10-18T18:38:38.713Z,101726.53
2022-10-18T18:41:19.067Z,101724.38
2022-10-18T18:43:50.496Z,101727.25
2022-10-18T18:46:16.887Z,101720.66
2022-10-18T18:48:43.242Z,101719.66
2022-10-18T18:51:15.694Z,101726.06
2022-10-18T18:53:43.645Z,101729.63
2022-10-18T18:56:22.761Z,101732.63
2022-10-18T18:58:49.414Z,101732.31
2022-10-18T19:01:20.866Z,101728.63
2022-10-18T19:03:50.339Z,101733.63
2022-10-18T19:06:22.900Z,101741.13
2022-10-18T19:08:49.703Z,101740.00
2022-10-18T19:11:18.703Z,101733.00
2022-10-18T19:13:45.305Z,101734.69
2022-10-18T19:16:18.884Z,101734.66
2022-10-18T19:18:52.394Z,101735.09
2022-10-18T19:21:19.345Z,101739.75
2022-10-18T19:23:45.707Z,101739.75
2022-10-18T19:26:17.683Z,101736.63
2022-10-18T19:28:44.016Z,101730.38
2022-10-18T19:31:10.351Z,101740.72
2022-10-18T19:33:48.069Z,101741.03
2022-10-18T19:36:22.220Z,101733.47
2022-10-18T19:38:48.608Z,101741.16
2022-10-18T19:41:14.942Z,101738.69
2022-10-18T19:43:41.283Z,101738.13
2022-10-18T19:46:07.611Z,101726.47
2022-10-18T19:48:33.916Z,101735.28
2022-10-18T19:51:05.893Z,101735.28
2022-10-18T19:53:34.125Z,101745.81
2022-10-18T19:56:02.436Z,101731.91
2022-10-18T19:58:29.072Z,101736.50
2022-10-18T20:00:56.256Z,101732.94
2022-10-18T20:03:24.504Z,101730.50
2022-10-18T20:05:56.321Z,101732.44
2022-10-18T20:08:23.887Z,101730.00
2022-10-18T20:10:50.703Z,101730.97
2022-10-18T20:13:17.379Z,101730.28
2022-10-18T20:15:45.812Z,101732.69
2022-10-18T20:18:12.192Z,101730.81
2022-10-18T20:20:38.481Z,101731.22
2022-10-18T20:23:04.840Z,101727.19
2022-10-18T20:25:31.147Z,101729.03
2022-10-18T20:27:57.464Z,101727.47
2022-10-18T20:30:23.792Z,101731.59
2022-10-18T20:32:53.196Z,101728.91
2022-10-18T20:35:20.385Z,101732.75
2022-10-18T20:37:47.184Z,101735.44
2022-10-18T20:40:13.800Z,101726.47
2022-10-18T20:42:40.119Z,101723.59
2022-10-18T20:45:07.425Z,101724.16
2022-10-18T20:47:35.214Z,101719.56
2022-10-18T20:50:02.197Z,101726.81
2022-10-18T20:52:28.521Z,101723.91
2022-10-18T20:54:54.857Z,101728.44
2022-10-18T20:57:21.177Z,101725.16
2022-10-18T20:59:48.640Z,101724.69
2022-10-18T21:02:15.056Z,101726.81
2022-10-18T21:04:42.362Z,101721.28
2022-10-18T21:07:08.882Z,101724.63
2022-10-18T21:09:35.167Z,101728.16
2022-10-18T21:12:01.512Z,101721.06
2022-10-18T21:14:27.906Z,101717.66
2022-10-18T21:16:54.208Z,101720.22
2022-10-18T21:19:23.431Z,101719.63
2022-10-18T21:21:52.275Z,101718.16
2022-10-18T21:24:20.268Z,101718.16
2022-10-18T21:26:47.816Z,101710.69
2022-10-18T21:29:19.296Z,101716.50
2022-10-18T21:31:48.273Z,101717.50
2022-10-18T21:34:17.168Z,101704.94
2022-10-18T21:36:46.544Z,101708.22
2022-10-18T21:39:18.302Z,101707.09
2022-10-18T21:41:45.617Z,101703.81
2022-10-18T21:44:12.835Z,101710.78
2022-10-18T21:46:40.046Z,101711.00
2022-10-18T21:49:07.250Z,101701.53
2022-10-18T21:51:33.571Z,101702.66
2022-10-18T21:54:00.037Z,101711.75
2022-10-18T21:56:29.402Z,101704.09
2022-10-18T21:58:56.520Z,101700.94
2022-10-18T22:01:24.412Z,101703.22
2022-10-18T22:03:52.931Z,101701.97
2022-10-18T22:06:20.052Z,101695.13
2022-10-18T22:08:54.403Z,101695.97
2022-10-18T22:11:24.206Z,101689.31
2022-10-18T22:13:52.327Z,101686.75
2022-10-18T22:16:18.777Z,101692.38
2022-10-18T22:18:47.157Z,101694.72
2022-10-18T22:21:15.516Z,101693.88
2022-10-18T22:23:48.216Z,101692.56
2022-10-18T22:26:20.538Z,101690.00
2022-10-18T22:28:47.319Z,101689.66
2022-10-18T22:31:18.766Z,101691.13
2022-10-18T22:33:45.955Z,101682.28
2022-10-18T22:36:12.644Z,101689.88
2022-10-18T22:38:39.396Z,101684.00
2022-10-18T22:41:07.180Z,101683.69
2022-10-18T22:43:34.062Z,101691.91
2022-10-18T22:46:09.467Z,101683.06
2022-10-18T22:48:36.055Z,101689.31
2022-10-18T22:51:03.483Z,101686.28
2022-10-18T22:53:30.319Z,101682.34
2022-10-18T22:55:56.843Z,101687.88
2022-10-18T22:58:23.356Z,101689.94
2022-10-18T23:00:49.839Z,101683.09
2022-10-18T23:03:17.933Z,101687.88
2022-10-18T23:05:45.814Z,101688.72
2022-10-18T23:08:14.085Z,101692.03
2022-10-18T23:10:42.180Z,101685.19
2022-10-18T23:13:09.075Z,101695.84
2022-10-18T23:15:35.467Z,101696.81
2022-10-18T23:18:02.120Z,101703.66
2022-10-18T23:20:28.449Z,101697.69
2022-10-18T23:22:54.727Z,101695.09
2022-10-18T23:25:21.032Z,101696.31
2022-10-18T23:27:47.313Z,101697.44
2022-10-18T23:30:13.625Z,101693.63
2022-10-18T23:32:39.991Z,101704.31
2022-10-18T23:35:06.976Z,101704.06
2022-10-18T23:37:33.644Z,101704.91
2022-10-18T23:40:00.301Z,101701.97
2022-10-18T23:42:26.629Z,101714.91
2022-10-18T23:44:52.943Z,101716.03
2022-10-18T23:47:19.255Z,101722.28
2022-10-18T23:49:45.579Z,101713.69
2022-10-18T23:52:11.874Z,101716.97
2022-10-18T23:54:38.227Z,101715.25
2022-10-18T23:57:04.557Z,101722.97
2022-10-18T23:59:30.971Z,101722.97
